createdAt,value
2023-04-28T00:00:37.308Z,4.86
2023-04-28T00:03:04.008Z,4.59
2023-04-28T00:05:30.556Z,4.75
2023-04-28T00:07:57.076Z,4.57
2023-04-28T00:10:23.540Z,5.15
2023-04-28T00:12:49.987Z,4.41
2023-04-28T00:15:16.490Z,4.81
2023-04-28T00:17:43.142Z,4.69
2023-04-28T00:20:09.761Z,4.90
2023-04-28T00:22:36.174Z,4.94
2023-04-28T00:25:02.753Z,4.43
2023-04-28T00:27:29.231Z,4.66
2023-04-28T00:29:55.853Z,4.49
2023-04-28T00:32:22.322Z,4.84
2023-04-28T00:34:48.861Z,4.71
2023-04-28T00:37:15.389Z,4.64
2023-04-28T00:39:41.873Z,4.36
2023-04-28T00:42:08.379Z,4.34
2023-04-28T00:44:37.925Z,4.34
2023-04-28T00:47:04.431Z,4.27
2023-04-28T00:49:30.843Z,4.58
2023-04-28T00:51:57.256Z,4.46
2023-04-28T00:54:23.714Z,4.44
2023-04-28T00:56:50.209Z,4.53
2023-04-28T00:59:16.689Z,4.41
2023-04-28T01:01:43.292Z,4.35
2023-04-28T01:04:10.074Z,4.57
2023-04-28T01:06:36.730Z,4.23
2023-04-28T01:09:03.227Z,4.51
2023-04-28T01:11:29.670Z,4.23
2023-04-28T01:13:56.172Z,4.06
2023-04-28T01:16:22.739Z,4.38
2023-04-28T01:18:49.222Z,4.44
2023-04-28T01:21:15.703Z,4.46
2023-04-28T01:23:42.176Z,4.44
2023-04-28T01:26:08.639Z,4.19
2023-04-28T01:28:36.277Z,4.14
2023-04-28T01:31:02.755Z,4.37
2023-04-28T01:33:29.170Z,4.46
2023-04-28T01:35:55.642Z,4.19
2023-04-28T01:38:22.059Z,4.06
2023-04-28T01:40:48.553Z,4.04
2023-04-28T01:43:15.021Z,4.03
2023-04-28T01:45:44.467Z,4.28
2023-04-28T01:48:10.940Z,4.10
2023-04-28T01:50:37.378Z,4.24
2023-04-28T01:53:03.792Z,4.27
2023-04-28T01:55:33.144Z,4.23
2023-04-28T01:57:59.655Z,4.24
2023-04-28T02:00:26.066Z,4.12
2023-04-28T02:02:52.630Z,4.26
2023-04-28T02:05:19.151Z,4.00
2023-04-28T02:07:45.586Z,4.16
2023-04-28T02:10:12.067Z,4.27
2023-04-28T02:12:38.640Z,4.14
2023-04-28T02:15:05.114Z,4.15
2023-04-28T02:17:31.664Z,3.99
2023-04-28T02:19:58.230Z,4.18
2023-04-28T02:22:24.660Z,4.17
2023-04-28T02:24:51.138Z,3.89
2023-04-28T02:27:17.657Z,3.79
2023-04-28T02:29:44.072Z,3.84
2023-04-28T02:32:10.479Z,4.04
2023-04-28T02:34:36.940Z,4.08
2023-04-28T02:37:05.205Z,3.94
2023-04-28T02:39:31.698Z,3.97
2023-04-28T02:41:58.201Z,4.24
2023-04-28T02:44:24.693Z,4.06
2023-04-28T02:46:51.230Z,4.01
2023-04-28T02:49:17.682Z,4.00
2023-04-28T02:51:44.171Z,3.95
2023-04-28T02:54:10.641Z,4.08
2023-04-28T02:56:37.084Z,4.08
2023-04-28T02:59:03.577Z,3.83
2023-04-28T03:01:30.124Z,3.93
2023-04-28T03:03:56.734Z,3.80
2023-04-28T03:06:23.336Z,4.01
2023-04-28T03:08:49.958Z,4.05
2023-04-28T03:11:16.517Z,3.99
2023-04-28T03:13:43.001Z,3.92
2023-04-28T03:16:09.599Z,3.85
2023-04-28T03:18:36.165Z,3.92
2023-04-28T03:21:02.736Z,3.94
2023-04-28T03:23:29.147Z,3.82
2023-04-28T03:25:55.694Z,3.56
2023-04-28T03:28:22.281Z,3.64
2023-04-28T03:30:48.896Z,4.01
2023-04-28T03:33:15.399Z,4.03
2023-04-28T03:35:41.819Z,3.61
2023-04-28T03:38:08.306Z,3.84
2023-04-28T03:40:34.981Z,3.86
2023-04-28T03:43:04.002Z,3.79
2023-04-28T03:45:31.339Z,3.70
2023-04-28T03:47:58.132Z,3.71
2023-04-28T03:50:26.543Z,3.70
2023-04-28T03:52:53.373Z,3.82
2023-04-28T03:55:19.873Z,3.72
2023-04-28T03:57:46.356Z,3.72
2023-04-28T04:00:12.981Z,3.94
2023-04-28T04:02:39.646Z,3.80
2023-04-28T04:05:06.442Z,3.76
2023-04-28T04:07:32.950Z,3.90
2023-04-28T04:10:03.869Z,3.54
2023-04-28T04:12:30.974Z,3.86
2023-04-28T04:14:57.563Z,3.70
2023-04-28T04:17:24.050Z,3.77
2023-04-28T04:19:50.473Z,3.73
2023-04-28T04:22:16.963Z,3.68
2023-04-28T04:27:09.201Z,3.69
2023-04-28T04:29:35.634Z,3.86
2023-04-28T04:32:02.268Z,3.95
2023-04-28T04:34:28.847Z,3.75
2023-04-28T04:36:55.443Z,3.64
2023-04-28T04:39:22.031Z,3.55
2023-04-28T04:41:48.598Z,3.57
2023-04-28T04:44:15.211Z,3.84
2023-04-28T04:46:42.064Z,3.64
2023-04-28T04:49:08.648Z,3.60
2023-04-28T04:51:35.140Z,3.36
2023-04-28T04:54:01.690Z,3.78
2023-04-28T04:56:28.269Z,4.01
2023-04-28T04:58:54.825Z,3.81
2023-04-28T05:01:21.383Z,3.89
2023-04-28T05:03:48.154Z,3.66
2023-04-28T05:06:14.768Z,3.65
2023-04-28T05:08:41.306Z,3.73
2023-04-28T05:11:07.779Z,3.75
2023-04-28T05:13:34.317Z,3.57
2023-04-28T05:16:00.945Z,3.68
2023-04-28T05:18:27.487Z,3.74
2023-04-28T05:20:54.044Z,3.59
2023-04-28T05:23:20.600Z,3.70
2023-04-28T05:25:47.072Z,3.44
2023-04-28T05:28:13.558Z,3.60
2023-04-28T05:30:40.055Z,3.44
2023-04-28T05:33:06.617Z,3.72
2023-04-28T05:35:33.254Z,3.46
2023-04-28T05:37:59.868Z,3.48
2023-04-28T05:40:26.454Z,3.64
2023-04-28T05:42:53.040Z,3.36
2023-04-28T05:45:19.731Z,3.40
2023-04-28T05:47:46.301Z,3.74
2023-04-28T05:50:12.921Z,3.41
2023-04-28T05:52:39.444Z,3.47
2023-04-28T05:55:05.915Z,3.50
2023-04-28T05:57:38.941Z,3.63
2023-04-28T06:00:12.106Z,3.45
2023-04-28T06:02:38.814Z,3.27
2023-04-28T06:05:05.612Z,3.40
2023-04-28T06:07:32.325Z,3.36
2023-04-28T06:09:58.818Z,3.41
2023-04-28T06:12:25.333Z,3.51
2023-04-28T06:14:51.912Z,3.21
2023-04-28T06:17:18.372Z,3.37
2023-04-28T06:19:44.899Z,3.35
2023-04-28T06:22:11.472Z,3.28
2023-04-28T06:24:38.008Z,3.39
2023-04-28T06:27:04.464Z,3.59
2023-04-28T06:29:31.020Z,3.44
2023-04-28T06:31:57.646Z,3.60
2023-04-28T06:34:24.216Z,3.38
2023-04-28T06:36:50.692Z,3.39
2023-04-28T06:39:17.245Z,3.57
2023-04-28T06:41:43.806Z,3.44
2023-04-28T06:44:10.367Z,3.35
2023-04-28T06:46:37.006Z,3.51
2023-04-28T06:49:03.599Z,3.26
2023-04-28T06:51:30.169Z,3.30
2023-04-28T06:53:56.740Z,3.08
2023-04-28T06:56:23.185Z,3.33
2023-04-28T06:58:49.707Z,3.23
2023-04-28T07:01:16.298Z,3.47
2023-04-28T07:03:42.976Z,3.49
2023-04-28T07:06:09.547Z,3.44
2023-04-28T07:08:36.061Z,3.24
2023-04-28T07:11:05.367Z,3.30
2023-04-28T07:13:31.861Z,3.55
2023-04-28T07:15:58.385Z,3.90
2023-04-28T07:18:24.845Z,3.80
2023-04-28T07:20:51.634Z,3.93
2023-04-28T07:23:18.158Z,3.96
2023-04-28T07:25:47.533Z,3.83
2023-04-28T07:28:17.066Z,3.77
2023-04-28T07:30:43.590Z,3.79
2023-04-28T07:33:10.131Z,3.96
2023-04-28T07:35:36.671Z,3.84
2023-04-28T07:38:03.181Z,4.05
2023-04-28T07:40:29.628Z,3.80
2023-04-28T07:42:56.135Z,3.59
2023-04-28T07:45:23.782Z,3.96
2023-04-28T07:47:50.356Z,3.85
2023-04-28T07:50:16.864Z,3.79
2023-04-28T07:52:43.434Z,3.87
2023-04-28T07:55:09.950Z,4.08
2023-04-28T07:57:36.513Z,4.05
2023-04-28T08:00:02.940Z,4.10
2023-04-28T08:02:29.586Z,3.79
2023-04-28T08:04:56.280Z,3.29
2023-04-28T08:07:22.977Z,2.88
2023-04-28T08:09:49.404Z,3.29
2023-04-28T08:12:15.893Z,4.03
2023-04-28T08:14:42.379Z,4.21
2023-04-28T08:17:08.983Z,4.62
2023-04-28T08:19:35.479Z,5.16
2023-04-28T08:22:01.972Z,5.68
2023-04-28T08:24:28.475Z,5.17
2023-04-28T08:26:54.938Z,5.14
2023-04-28T08:29:21.517Z,5.29
2023-04-28T08:31:48.018Z,6.27
2023-04-28T08:34:16.458Z,5.39
2023-04-28T08:36:43.279Z,5.58
2023-04-28T08:39:11.103Z,5.29
2023-04-28T08:41:38.873Z,5.42
2023-04-28T08:44:05.300Z,5.51
2023-04-28T08:46:31.903Z,5.27
2023-04-28T08:48:58.408Z,5.29
2023-04-28T08:51:24.952Z,5.18
2023-04-28T08:54:14.838Z,5.30
2023-04-28T08:56:37.967Z,5.52
2023-04-28T08:59:04.500Z,5.13
2023-04-28T09:01:31.128Z,5.03
2023-04-28T09:03:57.991Z,4.94
2023-04-28T09:06:24.553Z,5.20
2023-04-28T09:08:51.076Z,5.50
2023-04-28T09:11:17.591Z,5.21
2023-04-28T09:13:44.140Z,5.05
2023-04-28T09:16:10.700Z,5.18
2023-04-28T09:18:37.245Z,5.12
2023-04-28T09:21:03.761Z,5.06
2023-04-28T09:23:30.301Z,4.83
2023-04-28T09:25:56.801Z,4.94
2023-04-28T09:28:26.341Z,4.73
2023-04-28T09:30:52.869Z,5.11
2023-04-28T09:33:19.383Z,4.73
2023-04-28T09:35:45.944Z,4.60
2023-04-28T09:38:12.438Z,4.91
2023-04-28T09:40:38.859Z,5.11
2023-04-28T09:43:18.781Z,4.78
2023-04-28T09:45:47.897Z,4.69
2023-04-28T09:48:14.483Z,4.41
2023-04-28T09:50:41.092Z,4.59
2023-04-28T09:53:07.603Z,4.61
2023-04-28T09:55:34.103Z,4.76
2023-04-28T09:58:00.585Z,4.58
2023-04-28T10:00:27.084Z,4.48
2023-04-28T10:02:53.665Z,4.45
2023-04-28T10:05:20.397Z,4.74
2023-04-28T10:07:46.963Z,4.59
2023-04-28T10:10:13.501Z,4.44
2023-04-28T10:12:40.061Z,4.54
2023-04-28T10:15:06.582Z,4.60
2023-04-28T10:17:33.130Z,4.57
2023-04-28T10:19:59.679Z,4.25
2023-04-28T10:22:26.117Z,4.44
2023-04-28T10:24:52.564Z,4.21
2023-04-28T10:27:19.056Z,4.23
2023-04-28T10:29:45.535Z,4.26
2023-04-28T10:32:12.037Z,4.31
2023-04-28T10:34:38.567Z,4.22
2023-04-28T10:37:04.995Z,4.45
2023-04-28T10:39:31.512Z,4.09
2023-04-28T10:41:58.040Z,3.93
2023-04-28T10:44:24.509Z,3.86
2023-04-28T10:46:51.174Z,4.09
2023-04-28T10:49:17.854Z,3.88
2023-04-28T10:51:44.353Z,3.63
2023-04-28T10:54:10.902Z,3.62
2023-04-28T10:56:37.979Z,3.91
2023-04-28T10:59:05.523Z,3.46
2023-04-28T11:01:32.108Z,3.67
2023-04-28T11:03:59.033Z,3.75
2023-04-28T11:06:25.694Z,3.82
2023-04-28T11:08:52.242Z,3.91
2023-04-28T11:11:18.989Z,3.80
2023-04-28T11:13:45.587Z,4.01
2023-04-28T11:16:12.554Z,3.99
2023-04-28T11:18:39.049Z,3.85
2023-04-28T11:21:06.197Z,3.73
2023-04-28T11:23:32.745Z,3.86
2023-04-28T11:25:59.306Z,4.06
2023-04-28T11:28:25.868Z,3.99
2023-04-28T11:30:54.109Z,3.89
2023-04-28T11:33:20.742Z,3.67
2023-04-28T11:35:47.302Z,3.82
2023-04-28T11:38:13.802Z,3.88
2023-04-28T11:40:40.344Z,3.83
2023-04-28T11:43:07.073Z,3.64
2023-04-28T11:45:33.561Z,3.80
2023-04-28T11:48:00.245Z,3.83
2023-04-28T11:50:26.748Z,3.83
2023-04-28T11:52:53.786Z,3.93
2023-04-28T11:55:20.608Z,3.59
2023-04-28T11:57:47.162Z,3.85
2023-04-28T12:00:13.809Z,3.73
2023-04-28T12:02:40.535Z,3.73
2023-04-28T12:05:07.319Z,3.89
2023-04-28T12:07:33.882Z,4.05
2023-04-28T12:10:00.390Z,3.77
2023-04-28T12:12:35.245Z,3.80
2023-04-28T12:15:12.215Z,3.74
2023-04-28T12:17:38.684Z,3.91
2023-04-28T12:20:05.201Z,3.86
2023-04-28T12:22:31.713Z,3.91
2023-04-28T12:24:58.198Z,3.97
2023-04-28T12:27:24.682Z,3.92
2023-04-28T12:29:51.182Z,3.74
2023-04-28T12:32:17.882Z,4.07
2023-04-28T12:34:44.463Z,3.89
2023-04-28T12:37:11.030Z,3.71
2023-04-28T12:39:39.651Z,3.71
2023-04-28T12:42:06.358Z,3.65
2023-04-28T12:44:32.851Z,3.99
2023-04-28T12:46:59.332Z,3.98
2023-04-28T12:49:25.816Z,3.67
2023-04-28T12:51:52.239Z,3.88
2023-04-28T12:54:18.751Z,3.95
2023-04-28T12:56:45.352Z,3.68
2023-04-28T12:59:11.842Z,3.73
2023-04-28T13:01:38.313Z,3.65
2023-04-28T13:04:04.954Z,3.54
2023-04-28T13:06:31.639Z,3.93
2023-04-28T13:08:58.130Z,3.98
2023-04-28T13:11:24.626Z,4.52
2023-04-28T13:13:51.127Z,4.30
2023-04-28T13:16:17.704Z,4.30
2023-04-28T13:18:44.329Z,4.23
2023-04-28T13:21:10.827Z,4.31
2023-04-28T13:23:37.377Z,4.22
2023-04-28T13:26:03.841Z,4.53
2023-04-28T13:28:30.310Z,4.23
2023-04-28T13:30:56.833Z,4.11
2023-04-28T13:33:23.365Z,4.58
2023-04-28T13:35:49.872Z,4.47
2023-04-28T13:38:16.438Z,4.52
2023-04-28T13:40:42.994Z,4.35
2023-04-28T13:43:09.537Z,4.62
2023-04-28T13:45:36.091Z,4.25
2023-04-28T13:48:02.653Z,4.62
2023-04-28T13:50:29.143Z,4.31
2023-04-28T13:52:55.664Z,4.19
2023-04-28T13:55:22.173Z,4.45
2023-04-28T13:57:48.618Z,4.22
2023-04-28T14:00:15.048Z,3.89
2023-04-28T14:02:41.711Z,4.16
2023-04-28T14:05:08.373Z,3.91
2023-04-28T14:07:34.801Z,4.15
2023-04-28T14:10:01.203Z,4.45
2023-04-28T14:12:27.713Z,4.13
2023-04-28T14:14:54.180Z,3.93
2023-04-28T14:17:20.680Z,4.29
2023-04-28T14:19:47.315Z,4.22
2023-04-28T14:22:13.843Z,4.22
2023-04-28T14:24:40.261Z,4.21
2023-04-28T14:27:06.777Z,4.27
2023-04-28T14:29:33.281Z,4.40
2023-04-28T14:31:59.732Z,4.16
2023-04-28T14:34:26.217Z,4.10
2023-04-28T14:36:52.686Z,4.32
2023-04-28T14:39:19.192Z,4.41
2023-04-28T14:41:45.675Z,4.21
2023-04-28T14:44:12.281Z,4.10
2023-04-28T14:46:38.818Z,4.23
2023-04-28T14:49:05.403Z,4.06
2023-04-28T14:51:31.947Z,4.25
2023-04-28T14:53:58.521Z,4.04
2023-04-28T14:56:25.068Z,4.01
2023-04-28T14:58:51.555Z,4.05
2023-04-28T15:01:18.014Z,3.99
2023-04-28T15:03:44.655Z,4.42
2023-04-28T15:06:11.305Z,4.39
2023-04-28T15:08:37.861Z,4.10
2023-04-28T15:11:04.342Z,3.89
2023-04-28T15:13:30.794Z,4.16
2023-04-28T15:15:57.304Z,4.13
2023-04-28T15:18:23.827Z,4.07
2023-04-28T15:20:50.307Z,3.88
2023-04-28T15:23:16.807Z,3.82
2023-04-28T15:25:43.301Z,4.14
2023-04-28T15:28:09.873Z,3.86
2023-04-28T15:30:36.722Z,3.86
2023-04-28T15:33:03.205Z,4.20
2023-04-28T15:35:29.692Z,3.98
2023-04-28T15:37:56.214Z,4.20
2023-04-28T15:40:22.688Z,4.22
2023-04-28T15:42:49.278Z,4.00
2023-04-28T15:45:15.934Z,3.80
2023-04-28T15:47:42.508Z,4.11
2023-04-28T15:50:09.027Z,4.09
2023-04-28T15:52:35.528Z,4.16
2023-04-28T15:55:02.039Z,4.01
2023-04-28T15:57:28.593Z,3.82
2023-04-28T15:59:55.080Z,3.92
2023-04-28T16:02:21.658Z,3.96
2023-04-28T16:04:48.628Z,3.91
2023-04-28T16:07:15.484Z,4.19
2023-04-28T16:09:42.004Z,3.93
2023-04-28T16:12:08.586Z,3.91
2023-04-28T16:14:35.120Z,4.20
2023-04-28T16:17:01.619Z,4.12
2023-04-28T16:19:28.174Z,4.26
2023-04-28T16:21:54.647Z,4.40
2023-04-28T16:24:21.045Z,4.36
2023-04-28T16:26:47.538Z,4.37
2023-04-28T16:29:14.644Z,4.53
2023-04-28T16:31:41.304Z,4.44
2023-04-28T16:34:07.847Z,4.17
2023-04-28T16:36:34.310Z,4.12
2023-04-28T16:39:00.895Z,4.31
2023-04-28T16:41:27.422Z,4.08
2023-04-28T16:43:53.856Z,3.99
2023-04-28T16:46:20.370Z,4.02
2023-04-28T16:48:46.834Z,4.15
2023-04-28T16:51:13.342Z,4.28
2023-04-28T16:53:39.796Z,3.98
2023-04-28T16:56:08.322Z,4.09
2023-04-28T16:58:36.251Z,3.96
2023-04-28T17:01:02.748Z,3.93
2023-04-28T17:03:29.326Z,3.86
2023-04-28T17:05:55.808Z,3.84
2023-04-28T17:08:22.307Z,3.86
2023-04-28T17:10:48.745Z,3.87
2023-04-28T17:13:15.283Z,3.93
2023-04-28T17:15:41.830Z,3.94
2023-04-28T17:18:08.458Z,3.99
2023-04-28T17:20:35.053Z,3.92
2023-04-28T17:23:01.552Z,3.95
2023-04-28T17:25:28.092Z,4.23
2023-04-28T17:27:54.560Z,3.79
2023-04-28T17:30:21.100Z,3.67
2023-04-28T17:32:47.641Z,3.65
2023-04-28T17:35:14.235Z,3.87
2023-04-28T17:37:40.668Z,4.02
2023-04-28T17:40:07.152Z,3.85
2023-04-28T17:42:33.659Z,3.65
2023-04-28T17:45:00.157Z,3.59
2023-04-28T17:47:26.633Z,3.95
2023-04-28T17:49:53.069Z,3.96
2023-04-28T17:52:19.524Z,3.80
2023-04-28T17:54:46.043Z,3.72
2023-04-28T17:57:12.535Z,3.78
2023-04-28T17:59:38.988Z,3.50
2023-04-28T18:02:05.498Z,3.55
2023-04-28T18:04:31.971Z,3.53
2023-04-28T18:06:58.550Z,3.69
2023-04-28T18:09:24.995Z,3.64
2023-04-28T18:11:51.497Z,3.76
2023-04-28T18:14:17.907Z,3.51
2023-04-28T18:16:44.448Z,3.90
2023-04-28T18:19:10.960Z,3.68
2023-04-28T18:21:37.576Z,3.71
2023-04-28T18:24:04.032Z,3.82
2023-04-28T18:26:30.546Z,3.60
2023-04-28T18:28:57.067Z,3.61
2023-04-28T18:31:23.570Z,3.39
2023-04-28T18:33:50.089Z,3.44
2023-04-28T18:36:16.615Z,3.87
2023-04-28T18:38:43.173Z,3.53
2023-04-28T18:41:09.785Z,3.39
2023-04-28T18:43:36.825Z,3.37
2023-04-28T18:46:03.367Z,3.51
2023-04-28T18:48:29.827Z,3.66
2023-04-28T18:50:56.610Z,3.67
2023-04-28T18:53:23.021Z,3.44
2023-04-28T18:55:49.492Z,3.66
2023-04-28T18:58:16.032Z,3.87
2023-04-28T19:00:42.759Z,3.83
2023-04-28T19:03:09.483Z,3.72
2023-04-28T19:05:36.081Z,3.54
2023-04-28T19:08:02.556Z,3.60
2023-04-28T19:10:29.057Z,3.63
2023-04-28T19:12:55.526Z,3.74
2023-04-28T19:15:22.057Z,3.65
2023-04-28T19:17:48.613Z,3.75
2023-04-28T19:20:15.135Z,3.42
2023-04-28T19:22:41.747Z,3.46
2023-04-28T19:25:08.315Z,3.67
2023-04-28T19:27:34.779Z,3.70
2023-04-28T19:30:01.347Z,3.51
2023-04-28T19:32:27.916Z,4.44
2023-04-28T19:34:54.389Z,4.69
2023-04-28T19:37:20.879Z,5.09
2023-04-28T19:39:47.610Z,5.62
2023-04-28T19:42:14.364Z,5.53
2023-04-28T19:44:40.802Z,5.16
2023-04-28T19:47:07.337Z,5.43
2023-04-28T19:49:33.803Z,5.54
2023-04-28T19:52:00.401Z,5.36
2023-04-28T19:54:27.322Z,5.53
2023-04-28T19:56:53.764Z,5.80
2023-04-28T19:59:20.240Z,5.47
2023-04-28T20:01:46.798Z,5.66
2023-04-28T20:04:13.612Z,5.48
2023-04-28T20:06:40.263Z,5.35
2023-04-28T20:09:06.757Z,5.47
2023-04-28T20:11:33.256Z,4.37
2023-04-28T20:13:59.704Z,4.95
2023-04-28T20:16:26.285Z,5.03
2023-04-28T20:18:52.839Z,4.89
2023-04-28T20:21:19.321Z,5.48
2023-04-28T20:23:45.814Z,5.11
2023-04-28T20:26:12.307Z,5.16
2023-04-28T20:28:38.752Z,5.20
2023-04-28T20:31:08.002Z,4.65
2023-04-28T20:33:34.432Z,4.73
2023-04-28T20:36:00.934Z,4.50
2023-04-28T20:38:27.381Z,4.80
2023-04-28T20:40:53.924Z,4.55
2023-04-28T20:43:20.452Z,4.48
2023-04-28T20:45:46.947Z,4.55
2023-04-28T20:48:13.563Z,4.72
2023-04-28T20:50:40.120Z,4.62
2023-04-28T20:53:06.737Z,4.62
2023-04-28T20:55:33.195Z,4.57
2023-04-28T20:57:59.701Z,4.37
2023-04-28T21:00:26.254Z,4.55
2023-04-28T21:02:53.095Z,4.50
2023-04-28T21:05:19.724Z,4.20
2023-04-28T21:07:46.198Z,4.27
2023-04-28T21:10:12.703Z,4.09
2023-04-28T21:12:39.198Z,4.26
2023-04-28T21:15:05.651Z,4.14
2023-04-28T21:17:32.244Z,4.27
2023-04-28T21:19:58.784Z,4.13
2023-04-28T21:22:25.301Z,4.11
2023-04-28T21:24:51.860Z,4.33
2023-04-28T21:27:18.325Z,4.10
2023-04-28T21:29:44.807Z,4.14
2023-04-28T21:32:11.428Z,4.10
2023-04-28T21:34:38.034Z,3.99
2023-04-28T21:37:04.544Z,3.96
2023-04-28T21:39:31.097Z,3.99
2023-04-28T21:41:57.544Z,4.19
2023-04-28T21:44:23.971Z,4.02
2023-04-28T21:46:50.515Z,4.02
2023-04-28T21:49:16.996Z,4.06
2023-04-28T21:51:43.526Z,3.77
2023-04-28T21:54:10.025Z,4.21
2023-04-28T21:56:36.491Z,4.05
2023-04-28T21:59:03.092Z,3.84
2023-04-28T22:01:29.774Z,3.83
2023-04-28T22:03:56.439Z,3.98
2023-04-28T22:06:23.116Z,3.84
2023-04-28T22:08:49.615Z,3.96
2023-04-28T22:11:16.154Z,3.89
2023-04-28T22:13:42.661Z,4.22
2023-04-28T22:16:09.348Z,4.02
2023-04-28T22:18:35.962Z,3.90
2023-04-28T22:21:02.538Z,4.02
2023-04-28T22:23:29.053Z,4.00
2023-04-28T22:25:55.551Z,4.03
2023-04-28T22:28:22.145Z,3.98
2023-04-28T22:30:48.813Z,3.91
2023-04-28T22:33:15.339Z,3.96
2023-04-28T22:35:41.846Z,3.96
2023-04-28T22:38:08.423Z,3.80
2023-04-28T22:40:34.820Z,3.85
2023-04-28T22:43:01.368Z,3.89
2023-04-28T22:45:27.907Z,3.82
2023-04-28T22:47:54.430Z,3.70
2023-04-28T22:50:20.987Z,3.84
2023-04-28T22:52:47.479Z,3.73
2023-04-28T22:55:13.912Z,3.91
2023-04-28T22:57:40.358Z,3.79
2023-04-28T23:00:06.908Z,3.82
2023-04-28T23:02:33.615Z,3.71
2023-04-28T23:05:00.189Z,3.83
2023-04-28T23:07:26.716Z,3.73
2023-04-28T23:09:53.450Z,3.47
2023-04-28T23:12:20.079Z,3.64
2023-04-28T23:14:46.539Z,3.79
2023-04-28T23:17:12.970Z,3.66
2023-04-28T23:19:39.685Z,3.47
2023-04-28T23:22:06.270Z,3.53
2023-04-28T23:24:32.768Z,3.69
2023-04-28T23:26:59.232Z,3.56
2023-04-28T23:29:25.823Z,3.61
2023-04-28T23:31:52.640Z,3.51
2023-04-28T23:34:19.241Z,3.49
2023-04-28T23:36:45.746Z,3.67
2023-04-28T23:39:12.166Z,3.67
2023-04-28T23:41:38.655Z,3.58
2023-04-28T23:44:05.080Z,3.72
2023-04-28T23:46:31.506Z,3.46
2023-04-28T23:48:58.003Z,3.52
2023-04-28T23:51:24.446Z,3.37
2023-04-28T23:53:50.891Z,3.41
2023-04-28T23:56:17.362Z,3.49
2023-04-28T23:58:43.800Z,3.45
